createdAt,value
2022-08-20T00:03:58.952Z,62.00766
2022-08-20T00:09:02.743Z,62.23417
2022-08-20T00:14:03.754Z,62.23417
2022-08-20T00:19:04.643Z,62.46154
2022-08-20T00:24:05.550Z,63.14894
2022-08-20T00:29:06.512Z,62.46154
2022-08-20T00:34:07.405Z,62.23417
2022-08-20T00:39:08.334Z,62.23417
2022-08-20T00:44:09.292Z,62.23417
2022-08-20T00:49:10.199Z,62.23417
2022-08-20T00:59:11.684Z,62.00766
2022-08-20T01:04:12.743Z,62.00766
2022-08-20T01:09:13.680Z,62.00766
2022-08-20T01:14:18.154Z,62.00766
2022-08-20T01:19:29.772Z,62.23417
2022-08-20T01:24:31.187Z,62.00766
2022-08-20T01:29:32.140Z,62.00766
2022-08-20T01:34:33.042Z,62.00766
2022-08-20T01:39:33.929Z,62.00766
2022-08-20T01:44:34.867Z,62.23417
2022-08-20T01:49:35.782Z,62.00766
2022-08-20T01:54:36.733Z,62.00766
2022-08-20T01:59:37.674Z,61.55725
2022-08-20T02:04:38.591Z,61.55725
2022-08-20T02:09:39.529Z,61.78203
2022-08-20T02:14:40.446Z,62.00766
2022-08-20T02:19:41.521Z,62.23417
2022-08-20T02:24:42.503Z,62.46154
2022-08-20T02:29:43.448Z,62.91892
2022-08-20T02:34:44.382Z,63.61165
2022-08-20T02:39:45.305Z,63.84436
2022-08-20T02:44:46.245Z,63.61165
2022-08-20T02:49:47.238Z,63.61165
2022-08-20T02:54:48.144Z,63.61165
2022-08-20T03:04:50.717Z,63.84436
2022-08-20T03:09:51.606Z,64.07797
2022-08-20T03:14:52.489Z,63.84436
2022-08-20T03:19:53.414Z,63.61165
2022-08-20T03:24:54.332Z,63.61165
2022-08-20T03:29:55.342Z,63.37984
2022-08-20T03:34:56.312Z,63.61165
2022-08-20T03:39:57.279Z,63.37984
2022-08-20T03:44:59.299Z,63.14894
2022-08-20T03:50:00.438Z,62.68979
2022-08-20T03:55:01.405Z,62.46154
2022-08-20T04:00:02.532Z,62.46154
2022-08-20T04:05:03.459Z,62.46154
2022-08-20T04:10:04.388Z,62.23417
2022-08-20T04:15:05.313Z,62.00766
2022-08-20T04:20:08.022Z,62.00766
2022-08-20T04:25:11.860Z,62.23417
2022-08-20T04:30:16.990Z,62.00766
2022-08-20T04:35:17.893Z,61.78203
2022-08-20T04:40:18.802Z,61.78203
2022-08-20T04:45:19.857Z,61.78203
2022-08-20T04:50:20.778Z,61.78203
2022-08-20T04:55:21.683Z,61.78203
2022-08-20T05:00:22.601Z,62.00766
2022-08-20T05:05:23.750Z,61.78203
2022-08-20T05:10:24.741Z,62.00766
2022-08-20T05:15:25.656Z,61.78203
2022-08-20T05:20:26.598Z,61.78203
2022-08-20T05:25:27.514Z,61.78203
2022-08-20T05:30:28.610Z,62.00766
2022-08-20T05:35:29.912Z,61.78203
2022-08-20T05:40:30.822Z,61.55725
2022-08-20T05:45:31.828Z,61.78203
2022-08-20T05:50:32.736Z,61.78203
2022-08-20T05:55:33.764Z,61.78203
2022-08-20T06:00:34.944Z,61.78203
2022-08-20T06:05:35.847Z,61.78203
2022-08-20T06:10:36.756Z,62.00766
2022-08-20T06:15:38.499Z,62.23417
2022-08-20T06:20:39.412Z,62.91892
2022-08-20T06:25:40.432Z,63.14894
2022-08-20T06:30:41.349Z,62.46154
2022-08-20T06:35:42.232Z,62.68979
2022-08-20T06:40:43.142Z,62.91892
2022-08-20T06:45:44.074Z,62.68979
2022-08-20T06:50:47.523Z,62.68979
2022-08-20T06:55:49.096Z,62.46154
2022-08-20T07:00:50.055Z,62.46154
2022-08-20T07:05:51.016Z,62.23417
2022-08-20T07:10:51.966Z,62.00766
2022-08-20T07:15:53.080Z,62.23417
2022-08-20T07:20:55.156Z,62.91892
2022-08-20T07:25:56.095Z,62.68979
2022-08-20T07:30:57.830Z,62.46154
2022-08-20T07:35:58.882Z,62.46154
2022-08-20T07:40:59.781Z,62.46154
2022-08-20T07:46:05.575Z,62.46154
2022-08-20T07:51:07.101Z,62.23417
2022-08-20T07:56:08.082Z,62.00766
2022-08-20T08:01:09.112Z,62.00766
2022-08-20T08:06:10.095Z,62.00766
2022-08-20T08:11:15.362Z,62.68979
2022-08-20T08:16:16.307Z,62.46154
2022-08-20T08:21:21.008Z,62.23417
2022-08-20T08:26:22.082Z,62.46154
2022-08-20T08:31:23.251Z,62.23417
2022-08-20T08:36:24.274Z,62.46154
2022-08-20T08:41:25.266Z,62.46154
2022-08-20T08:46:27.368Z,62.46154
2022-08-20T08:51:28.297Z,62.23417
2022-08-20T08:56:29.210Z,62.23417
2022-08-20T09:01:55.540Z,61.78203
2022-08-20T09:06:57.764Z,61.78203
2022-08-20T09:11:58.790Z,61.55725
2022-08-20T09:16:59.942Z,61.33333
2022-08-20T09:22:00.901Z,61.11027
2022-08-20T09:27:01.902Z,60.66667
2022-08-20T09:32:03.001Z,60.66667
2022-08-20T09:37:05.631Z,61.11027
2022-08-20T09:42:06.536Z,61.11027
2022-08-20T09:47:07.503Z,60.88805
2022-08-20T09:52:08.402Z,61.11027
2022-08-20T09:57:09.327Z,61.11027
2022-08-20T10:02:10.611Z,61.11027
2022-08-20T10:07:11.705Z,60.44612
2022-08-20T10:12:16.858Z,61.33333
2022-08-20T10:17:17.801Z,62.00766
2022-08-20T10:22:18.741Z,60.88805
2022-08-20T10:27:19.681Z,61.33333
2022-08-20T10:32:21.016Z,60.88805
2022-08-20T10:37:22.043Z,61.55725
2022-08-20T10:42:23.237Z,62.00766
2022-08-20T10:47:24.367Z,61.78203
2022-08-20T10:52:25.249Z,61.55725
2022-08-20T10:57:26.203Z,61.55725
2022-08-20T11:02:27.237Z,61.78203
2022-08-20T11:07:59.842Z,61.78203
2022-08-20T11:13:01.083Z,61.78203
2022-08-20T11:18:02.583Z,62.23417
2022-08-20T11:23:06.757Z,62.46154
2022-08-20T11:28:07.824Z,63.14894
2022-08-20T11:33:08.771Z,62.46154
2022-08-20T11:38:09.745Z,62.23417
2022-08-20T11:43:15.651Z,62.23417
2022-08-20T11:48:17.736Z,62.46154
2022-08-20T11:53:18.672Z,62.91892
2022-08-20T11:58:19.992Z,63.14894
2022-08-20T12:08:27.491Z,62.68979
2022-08-20T12:13:47.030Z,62.91892
2022-08-20T12:18:48.615Z,63.14894
2022-08-20T12:23:49.514Z,63.37984
2022-08-20T12:28:50.448Z,63.61165
2022-08-20T12:33:51.361Z,63.37984
2022-08-20T12:38:52.324Z,63.84436
2022-08-20T12:43:53.293Z,63.61165
2022-08-20T12:48:54.270Z,63.37984
2022-08-20T12:53:56.130Z,63.14894
2022-08-20T12:58:57.069Z,63.14894
2022-08-20T13:03:57.979Z,62.91892
2022-08-20T13:08:58.907Z,64.3125
2022-08-20T13:13:59.870Z,64.07797
2022-08-20T13:19:05.851Z,63.37984
2022-08-20T13:24:06.815Z,62.91892
2022-08-20T13:29:07.780Z,62.68979
2022-08-20T13:34:08.738Z,62.46154
2022-08-20T13:39:09.698Z,62.46154
2022-08-20T13:44:10.641Z,62.68979
2022-08-20T13:49:11.602Z,62.46154
2022-08-20T13:54:12.581Z,62.68979
2022-08-20T13:59:13.930Z,62.91892
2022-08-20T14:04:14.826Z,62.91892
2022-08-20T14:09:15.800Z,62.46154
2022-08-20T14:14:16.714Z,62.46154
2022-08-20T14:19:17.764Z,62.46154
2022-08-20T14:24:18.675Z,62.46154
2022-08-20T14:29:19.579Z,62.68979
2022-08-20T14:34:20.536Z,62.91892
2022-08-20T14:39:21.438Z,62.46154
2022-08-20T14:44:22.328Z,62.46154
2022-08-20T14:49:23.269Z,62.23417
2022-08-20T14:54:24.609Z,62.46154
2022-08-20T14:59:25.555Z,62.91892
2022-08-20T15:04:26.454Z,63.14894
2022-08-20T15:09:27.603Z,63.37984
2022-08-20T15:14:28.510Z,63.61165
2022-08-20T15:19:30.932Z,63.84436
2022-08-20T15:24:31.844Z,63.14894
2022-08-20T15:29:32.716Z,62.68979
2022-08-20T15:34:33.672Z,62.46154
2022-08-20T15:39:34.624Z,62.23417
2022-08-20T15:44:35.630Z,62.00766
2022-08-20T15:49:36.654Z,61.78203
2022-08-20T15:54:37.571Z,61.78203
2022-08-20T15:59:38.519Z,62.00766
2022-08-20T16:04:39.446Z,62.00766
2022-08-20T16:09:40.438Z,61.78203
2022-08-20T16:14:41.365Z,61.78203
2022-08-20T16:19:42.306Z,62.00766
2022-08-20T16:24:43.215Z,62.00766
2022-08-20T16:29:44.132Z,62.23417
2022-08-20T16:34:45.068Z,62.00766
2022-08-20T16:39:46.088Z,62.00766
2022-08-20T16:44:49.588Z,62.00766
2022-08-20T16:49:50.518Z,62.00766
2022-08-20T16:54:51.436Z,62.00766
2022-08-20T16:59:52.376Z,62.00766
2022-08-20T17:04:59.033Z,61.78203
2022-08-20T17:10:02.983Z,61.55725
2022-08-20T17:15:04.333Z,61.55725
2022-08-20T17:20:05.244Z,61.78203
2022-08-20T17:25:06.153Z,61.78203
2022-08-20T17:30:07.083Z,61.78203
2022-08-20T17:35:07.973Z,61.78203
2022-08-20T17:40:09.057Z,62.00766
2022-08-20T17:45:10.074Z,62.46154
2022-08-20T17:50:11.046Z,62.68979
2022-08-20T17:55:11.954Z,62.23417
2022-08-20T18:00:12.859Z,62.00766
2022-08-20T18:05:13.837Z,62.00766
2022-08-20T18:10:14.732Z,61.78203
2022-08-20T18:15:15.654Z,61.78203
2022-08-20T18:20:16.623Z,61.78203
2022-08-20T18:25:17.493Z,62.00766
2022-08-20T18:30:18.410Z,61.78203
2022-08-20T18:35:19.312Z,61.78203
2022-08-20T18:40:20.243Z,62.00766
2022-08-20T18:45:21.237Z,62.46154
2022-08-20T18:50:25.084Z,62.23417
2022-08-20T18:55:25.973Z,62.23417
2022-08-20T19:00:30.577Z,62.23417
2022-08-20T19:05:31.796Z,62.23417
2022-08-20T19:10:32.787Z,62.23417
2022-08-20T19:15:33.693Z,62.46154
2022-08-20T19:20:34.615Z,62.23417
2022-08-20T19:25:35.554Z,62.00766
2022-08-20T19:30:36.478Z,62.23417
2022-08-20T19:35:37.383Z,62.23417
2022-08-20T19:40:39.329Z,62.23417
2022-08-20T19:45:41.354Z,62.23417
2022-08-20T19:50:47.357Z,62.23417
2022-08-20T19:55:48.484Z,62.46154
2022-08-20T20:00:50.974Z,62.68979
2022-08-20T20:05:51.909Z,62.46154
2022-08-20T20:10:52.908Z,62.46154
2022-08-20T20:15:53.799Z,62.46154
2022-08-20T20:20:56.962Z,62.46154
2022-08-20T20:25:58.887Z,62.46154
2022-08-20T20:30:59.770Z,62.46154
2022-08-20T20:36:00.866Z,62.46154
2022-08-20T20:41:02.094Z,62.46154
2022-08-20T20:46:03.031Z,62.23417
2022-08-20T20:51:04.010Z,62.23417
2022-08-20T20:56:04.986Z,62.23417
2022-08-20T21:01:05.910Z,62.46154
2022-08-20T21:06:06.873Z,62.68979
2022-08-20T21:11:08.029Z,62.91892
2022-08-20T21:16:09.168Z,62.91892
2022-08-20T21:21:10.235Z,62.91892
2022-08-20T21:26:11.240Z,62.91892
2022-08-20T21:31:12.347Z,62.91892
2022-08-20T21:36:13.267Z,62.91892
2022-08-20T21:41:14.276Z,62.91892
2022-08-20T21:46:16.576Z,63.14894
2022-08-20T21:51:26.273Z,63.37984
2022-08-20T21:56:27.204Z,63.14894
2022-08-20T22:01:28.175Z,63.37984
2022-08-20T22:06:29.202Z,63.37984
2022-08-20T22:11:30.236Z,63.37984
2022-08-20T22:16:31.360Z,63.61165
2022-08-20T22:21:32.516Z,63.61165
2022-08-20T22:26:33.512Z,63.61165
2022-08-20T22:31:34.420Z,63.61165
2022-08-20T22:36:35.413Z,63.61165
2022-08-20T22:41:36.338Z,63.61165
2022-08-20T22:46:37.322Z,63.61165
2022-08-20T22:51:38.851Z,63.61165
2022-08-20T22:56:39.884Z,63.61165
2022-08-20T23:01:41.924Z,63.61165
2022-08-20T23:06:42.872Z,63.61165
2022-08-20T23:11:43.895Z,63.37984
2022-08-20T23:16:44.912Z,63.37984
2022-08-20T23:26:53.001Z,63.61165
2022-08-20T23:31:54.316Z,63.61165
2022-08-20T23:36:55.207Z,63.61165
2022-08-20T23:41:56.177Z,63.37984
2022-08-20T23:46:57.082Z,63.61165
2022-08-20T23:51:57.993Z,63.61165
2022-08-20T23:56:58.926Z,63.84436
